Breckenridge, CO

3:24 AM MDT on May 22, 2015 (GMT -0600)
MesoWest | | Change Station
CLOSE
Current Station
Personal Weather Station
Location: Alma, CO
Elevation: 11399 ft
Nearby Weather Stations
Active Advisory: Winter Weather Advisory Active Notice: Public Information Statement

Elev 11399 ft 39.36 °N, 106.06 °W | Updated 12 hours ago

Cloudy
Cloudy
32 °F
Feels Like 26 °F
N
7
Wind Variable Wind from WSW
Gusts 11 mph

Today
High -- | Low -- °F
--% Chance of Precip.
Yesterday
High -- | Low -- °F
Precip. -- in
5:45 AM 8:17 PM
Waxing Crescent, 20% visible
Pressure 30.17 in
Visibility 0.2 miles
Clouds Overcast 100 ft
Windchill 26 °F
Dew Point 32 °F
Humidity 99%
Rainfall in
Snow Depth Not available.
UV 0 out of 12
Pollen 7.10 out of 12
Air Quality Not available.
Flu Activity Sporadic
METAR KCCU 220915Z AUTO 27006KT M1/4SM VCTS HZ OVC001 01/M01 A3017 RMK AO2

More Conditions Fewer Conditions

Pressure 30.17 in
Visibility 0.2 miles
Clouds Overcast 100 ft
Windchill 26 °F
Dew Point 32 °F
Humidity 99%
Rainfall in
Snow Depth Not available.
UV 0 out of 12
Pollen 7.10 out of 12
Air Quality Not available.
Flu Activity Sporadic
METAR KCCU 220915Z AUTO 27006KT M1/4SM VCTS HZ OVC001 01/M01 A3017 RMK AO2

More Conditions Fewer Conditions

10-Day Weather Forecast

Almanac

Astronomy

May. 22, 2015 Rise Set
Actual Time
Civil Twilight
Nautical Twilight
Astronomical Twilight
Moon
Length of Visible Light
Length of Day
Tomorrow will be .
, % of the Moon is Illuminated

Today's Extremes

State Highs State Lows

Community

WunderPhotos

Upload Photos

1,823,195 photos uploaded!

WunderBlogs® & News

Nearby

Air Quality

  Air Quality AQ Index Pollutant
Not available.

Snow Depth

Station Depth Elevation

Earthquake Activity

City Distance Mag. Time & Date
Minimum magnitude displayed is 2.5.

Coastal Water Temperatures

Place Temperature

Stations

Nearby Weather Stations

Station Location Temp. Windchill Dew Point Humidity Wind Precip. Elev Updated Type
                   
Winter Weather Advisory
Statement as of 9:50 PM MDT on May 21, 2015

... Winter Weather Advisory remains in effect until 6 am MDT
Friday...

* timing... snow showers will be widespread overnight... then
diminish Friday morning.

* Snow accumulations... 4 to 8 inches by Friday morning...
heaviest over northern Park County and elevations above 10500
feet.

* Wind/visibility... southeast winds of 15 to 25 mph.
Visibilities below a half a mile at times in heavier snow
showers.

* Impacts... mountain passes above 10500 feet will become
snowpacked and slushy.

Precautionary/preparedness actions...

A Winter Weather Advisory for snow means that periods of snow may
cause travel difficulties. Be prepared for snow covered roads and
limited visibilities... and use caution while driving.



Gimmestad